sensor_id;sensor_type;location;lat;lon;timestamp;P1;durP1;ratioP1;P2;durP2;ratioP2
4290;SDS011;2159;50.906;7.152;2023-02-03T00:00:02;11.20;;;6.07;;
4290;SDS011;2159;50.906;7.152;2023-02-03T00:02:30;10.60;;;5.73;;
4290;SDS011;2159;50.906;7.152;2023-02-03T00:04:57;10.30;;;5.30;;
4290;SDS011;2159;50.906;7.152;2023-02-03T00:07:25;10.03;;;5.70;;
4290;SDS011;2159;50.906;7.152;2023-02-03T00:09:55;10.03;;;5.63;;
4290;SDS011;2159;50.906;7.152;2023-02-03T00:12:22;14.27;;;5.90;;
4290;SDS011;2159;50.906;7.152;2023-02-03T00:14:50;8.87;;;5.70;;
4290;SDS011;2159;50.906;7.152;2023-02-03T00:17:17;8.10;;;5.90;;
4290;SDS011;2159;50.906;7.152;2023-02-03T00:19:45;7.93;;;5.40;;
4290;SDS011;2159;50.906;7.152;2023-02-03T00:22:12;10.60;;;6.20;;
4290;SDS011;2159;50.906;7.152;2023-02-03T00:24:40;9.90;;;5.00;;
4290;SDS011;2159;50.906;7.152;2023-02-03T00:27:08;8.30;;;5.20;;
4290;SDS011;2159;50.906;7.152;2023-02-03T00:29:36;9.03;;;5.80;;
4290;SDS011;2159;50.906;7.152;2023-02-03T00:32:04;14.43;;;5.23;;
4290;SDS011;2159;50.906;7.152;2023-02-03T00:34:31;6.90;;;4.67;;
4290;SDS011;2159;50.906;7.152;2023-02-03T00:36:59;19.63;;;5.40;;
4290;SDS011;2159;50.906;7.152;2023-02-03T00:39:26;12.23;;;5.07;;
4290;SDS011;2159;50.906;7.152;2023-02-03T00:41:53;6.70;;;4.10;;
4290;SDS011;2159;50.906;7.152;2023-02-03T00:44:22;12.20;;;4.93;;
4290;SDS011;2159;50.906;7.152;2023-02-03T00:46:50;7.80;;;4.43;;
4290;SDS011;2159;50.906;7.152;2023-02-03T00:49:17;11.07;;;4.43;;
4290;SDS011;2159;50.906;7.152;2023-02-03T00:51:45;7.10;;;4.43;;
4290;SDS011;2159;50.906;7.152;2023-02-03T00:54:12;6.27;;;4.03;;
4290;SDS011;2159;50.906;7.152;2023-02-03T00:56:40;4.93;;;3.77;;
4290;SDS011;2159;50.906;7.152;2023-02-03T00:59:07;8.10;;;4.77;;
4290;SDS011;2159;50.906;7.152;2023-02-03T01:01:36;8.57;;;4.00;;
4290;SDS011;2159;50.906;7.152;2023-02-03T01:04:04;6.43;;;3.70;;
4290;SDS011;2159;50.906;7.152;2023-02-03T01:06:31;9.00;;;4.80;;
4290;SDS011;2159;50.906;7.152;2023-02-03T01:09:00;7.80;;;4.30;;
4290;SDS011;2159;50.906;7.152;2023-02-03T01:11:28;6.40;;;3.67;;
4290;SDS011;2159;50.906;7.152;2023-02-03T01:13:55;6.60;;;4.60;;
4290;SDS011;2159;50.906;7.152;2023-02-03T01:16:24;7.60;;;3.70;;
4290;SDS011;2159;50.906;7.152;2023-02-03T01:18:55;11.83;;;4.33;;
4290;SDS011;2159;50.906;7.152;2023-02-03T01:21:23;7.47;;;4.40;;
4290;SDS011;2159;50.906;7.152;2023-02-03T01:23:51;5.40;;;4.07;;
4290;SDS011;2159;50.906;7.152;2023-02-03T01:26:19;8.70;;;4.20;;
4290;SDS011;2159;50.906;7.152;2023-02-03T01:28:49;7.40;;;3.70;;
4290;SDS011;2159;50.906;7.152;2023-02-03T01:31:18;8.53;;;3.90;;
4290;SDS011;2159;50.906;7.152;2023-02-03T01:33:46;11.60;;;3.90;;
4290;SDS011;2159;50.906;7.152;2023-02-03T01:36:15;6.80;;;4.10;;
4290;SDS011;2159;50.906;7.152;2023-02-03T01:38:43;7.13;;;3.60;;
4290;SDS011;2159;50.906;7.152;2023-02-03T01:41:12;9.33;;;3.77;;
4290;SDS011;2159;50.906;7.152;2023-02-03T01:43:40;3.27;;;3.00;;
4290;SDS011;2159;50.906;7.152;2023-02-03T01:46:13;8.83;;;3.43;;
4290;SDS011;2159;50.906;7.152;2023-02-03T01:48:44;4.80;;;3.20;;
4290;SDS011;2159;50.906;7.152;2023-02-03T01:51:12;5.83;;;3.37;;
4290;SDS011;2159;50.906;7.152;2023-02-03T01:53:40;8.13;;;3.67;;
4290;SDS011;2159;50.906;7.152;2023-02-03T01:56:08;4.13;;;3.40;;
4290;SDS011;2159;50.906;7.152;2023-02-03T01:58:37;7.37;;;3.40;;
4290;SDS011;2159;50.906;7.152;2023-02-03T02:01:05;6.27;;;3.70;;
4290;SDS011;2159;50.906;7.152;2023-02-03T02:03:33;7.70;;;3.07;;
4290;SDS011;2159;50.906;7.152;2023-02-03T02:06:03;5.60;;;4.00;;
4290;SDS011;2159;50.906;7.152;2023-02-03T02:08:30;6.13;;;3.10;;
4290;SDS011;2159;50.906;7.152;2023-02-03T02:10:59;8.67;;;3.40;;
4290;SDS011;2159;50.906;7.152;2023-02-03T02:13:27;3.53;;;2.87;;
4290;SDS011;2159;50.906;7.152;2023-02-03T02:15:57;4.70;;;3.00;;
4290;SDS011;2159;50.906;7.152;2023-02-03T02:21:35;6.63;;;3.63;;
4290;SDS011;2159;50.906;7.152;2023-02-03T02:26:53;8.03;;;3.47;;
4290;SDS011;2159;50.906;7.152;2023-02-03T02:32:11;6.60;;;3.23;;
4290;SDS011;2159;50.906;7.152;2023-02-03T02:34:45;6.73;;;2.80;;
4290;SDS011;2159;50.906;7.152;2023-02-03T02:37:16;6.07;;;3.03;;
4290;SDS011;2159;50.906;7.152;2023-02-03T02:39:47;7.10;;;3.10;;
4290;SDS011;2159;50.906;7.152;2023-02-03T02:42:18;4.00;;;2.70;;
4290;SDS011;2159;50.906;7.152;2023-02-03T02:44:50;4.83;;;3.00;;
4290;SDS011;2159;50.906;7.152;2023-02-03T02:47:20;8.00;;;2.90;;
4290;SDS011;2159;50.906;7.152;2023-02-03T02:49:50;3.90;;;2.57;;
4290;SDS011;2159;50.906;7.152;2023-02-03T02:52:19;6.93;;;3.17;;
4290;SDS011;2159;50.906;7.152;2023-02-03T02:54:48;3.13;;;2.80;;
4290;SDS011;2159;50.906;7.152;2023-02-03T02:57:17;6.60;;;3.30;;
4290;SDS011;2159;50.906;7.152;2023-02-03T02:59:46;3.63;;;2.70;;
4290;SDS011;2159;50.906;7.152;2023-02-03T03:02:14;7.47;;;3.20;;
4290;SDS011;2159;50.906;7.152;2023-02-03T03:04:43;8.30;;;3.00;;
4290;SDS011;2159;50.906;7.152;2023-02-03T03:07:13;6.37;;;2.70;;
4290;SDS011;2159;50.906;7.152;2023-02-03T03:09:43;4.00;;;2.20;;
4290;SDS011;2159;50.906;7.152;2023-02-03T03:12:11;5.83;;;3.03;;
4290;SDS011;2159;50.906;7.152;2023-02-03T03:14:41;6.60;;;2.83;;
4290;SDS011;2159;50.906;7.152;2023-02-03T03:17:10;3.80;;;2.50;;
4290;SDS011;2159;50.906;7.152;2023-02-03T03:19:38;4.40;;;2.93;;
4290;SDS011;2159;50.906;7.152;2023-02-03T03:22:10;3.67;;;2.60;;
4290;SDS011;2159;50.906;7.152;2023-02-03T03:24:40;6.03;;;3.17;;
4290;SDS011;2159;50.906;7.152;2023-02-03T03:27:09;5.40;;;2.87;;
4290;SDS011;2159;50.906;7.152;2023-02-03T03:29:40;4.63;;;2.90;;
4290;SDS011;2159;50.906;7.152;2023-02-03T03:32:08;11.53;;;3.50;;
4290;SDS011;2159;50.906;7.152;2023-02-03T03:34:36;5.73;;;2.70;;
4290;SDS011;2159;50.906;7.152;2023-02-03T03:37:05;8.20;;;3.10;;
4290;SDS011;2159;50.906;7.152;2023-02-03T03:39:38;5.20;;;3.00;;
4290;SDS011;2159;50.906;7.152;2023-02-03T03:42:09;6.33;;;3.60;;
4290;SDS011;2159;50.906;7.152;2023-02-03T03:44:42;4.67;;;3.27;;
4290;SDS011;2159;50.906;7.152;2023-02-03T03:47:15;9.13;;;3.17;;
4290;SDS011;2159;50.906;7.152;2023-02-03T03:49:44;7.47;;;2.77;;
4290;SDS011;2159;50.906;7.152;2023-02-03T03:52:13;4.37;;;3.03;;
4290;SDS011;2159;50.906;7.152;2023-02-03T03:54:42;5.70;;;3.10;;
4290;SDS011;2159;50.906;7.152;2023-02-03T03:57:12;5.17;;;3.20;;
4290;SDS011;2159;50.906;7.152;2023-02-03T03:59:43;7.37;;;3.50;;
4290;SDS011;2159;50.906;7.152;2023-02-03T04:02:11;6.80;;;2.97;;
4290;SDS011;2159;50.906;7.152;2023-02-03T04:04:39;8.73;;;3.47;;
4290;SDS011;2159;50.906;7.152;2023-02-03T04:07:07;4.87;;;3.47;;
4290;SDS011;2159;50.906;7.152;2023-02-03T04:09:35;7.30;;;3.73;;
4290;SDS011;2159;50.906;7.152;2023-02-03T04:12:04;7.80;;;3.53;;
4290;SDS011;2159;50.906;7.152;2023-02-03T04:14:32;7.97;;;3.60;;
4290;SDS011;2159;50.906;7.152;2023-02-03T04:17:00;3.90;;;3.17;;
4290;SDS011;2159;50.906;7.152;2023-02-03T04:19:27;5.73;;;3.17;;
4290;SDS011;2159;50.906;7.152;2023-02-03T04:21:55;5.70;;;3.07;;
4290;SDS011;2159;50.906;7.152;2023-02-03T04:24:22;10.73;;;3.60;;
4290;SDS011;2159;50.906;7.152;2023-02-03T04:26:50;6.17;;;3.17;;
4290;SDS011;2159;50.906;7.152;2023-02-03T04:29:19;6.70;;;3.30;;
4290;SDS011;2159;50.906;7.152;2023-02-03T04:31:46;6.50;;;3.57;;
4290;SDS011;2159;50.906;7.152;2023-02-03T04:34:14;4.43;;;3.37;;
4290;SDS011;2159;50.906;7.152;2023-02-03T04:36:42;8.77;;;3.60;;
4290;SDS011;2159;50.906;7.152;2023-02-03T04:39:09;5.53;;;3.40;;
4290;SDS011;2159;50.906;7.152;2023-02-03T04:41:37;5.17;;;3.40;;
4290;SDS011;2159;50.906;7.152;2023-02-03T04:44:04;11.47;;;3.10;;
4290;SDS011;2159;50.906;7.152;2023-02-03T04:46:33;6.63;;;3.10;;
4290;SDS011;2159;50.906;7.152;2023-02-03T04:49:01;6.90;;;3.23;;
4290;SDS011;2159;50.906;7.152;2023-02-03T04:51:28;7.57;;;3.30;;
4290;SDS011;2159;50.906;7.152;2023-02-03T04:53:55;5.00;;;2.97;;
4290;SDS011;2159;50.906;7.152;2023-02-03T04:56:23;5.37;;;2.67;;
4290;SDS011;2159;50.906;7.152;2023-02-03T04:58:50;6.07;;;3.10;;
4290;SDS011;2159;50.906;7.152;2023-02-03T05:01:18;8.10;;;3.10;;
4290;SDS011;2159;50.906;7.152;2023-02-03T05:03:47;5.53;;;2.77;;
4290;SDS011;2159;50.906;7.152;2023-02-03T05:06:14;8.13;;;3.23;;
4290;SDS011;2159;50.906;7.152;2023-02-03T05:08:41;6.37;;;2.90;;
4290;SDS011;2159;50.906;7.152;2023-02-03T05:11:09;4.43;;;2.90;;
4290;SDS011;2159;50.906;7.152;2023-02-03T05:13:36;9.13;;;3.53;;
4290;SDS011;2159;50.906;7.152;2023-02-03T05:16:04;4.17;;;3.00;;
4290;SDS011;2159;50.906;7.152;2023-02-03T05:18:32;3.83;;;2.60;;
4290;SDS011;2159;50.906;7.152;2023-02-03T05:21:01;5.50;;;2.53;;
4290;SDS011;2159;50.906;7.152;2023-02-03T05:23:28;7.30;;;3.00;;
4290;SDS011;2159;50.906;7.152;2023-02-03T05:25:55;11.93;;;3.43;;
4290;SDS011;2159;50.906;7.152;2023-02-03T05:28:23;6.87;;;3.30;;
4290;SDS011;2159;50.906;7.152;2023-02-03T05:30:50;3.13;;;2.63;;
4290;SDS011;2159;50.906;7.152;2023-02-03T05:33:18;6.43;;;3.10;;
4290;SDS011;2159;50.906;7.152;2023-02-03T05:35:45;4.30;;;2.90;;
4290;SDS011;2159;50.906;7.152;2023-02-03T05:38:14;3.20;;;2.90;;
4290;SDS011;2159;50.906;7.152;2023-02-03T05:40:41;6.43;;;3.00;;
4290;SDS011;2159;50.906;7.152;2023-02-03T05:43:26;3.47;;;2.47;;
4290;SDS011;2159;50.906;7.152;2023-02-03T05:45:54;5.43;;;2.43;;
4290;SDS011;2159;50.906;7.152;2023-02-03T05:48:22;5.63;;;2.40;;
4290;SDS011;2159;50.906;7.152;2023-02-03T05:50:49;6.43;;;3.17;;
4290;SDS011;2159;50.906;7.152;2023-02-03T05:53:18;6.37;;;2.50;;
4290;SDS011;2159;50.906;7.152;2023-02-03T05:55:45;2.90;;;2.60;;
4290;SDS011;2159;50.906;7.152;2023-02-03T05:58:13;4.27;;;2.43;;
4290;SDS011;2159;50.906;7.152;2023-02-03T06:00:40;3.50;;;2.30;;
4290;SDS011;2159;50.906;7.152;2023-02-03T06:03:08;5.30;;;2.13;;
4290;SDS011;2159;50.906;7.152;2023-02-03T06:05:35;3.07;;;2.23;;
4290;SDS011;2159;50.906;7.152;2023-02-03T06:08:06;3.63;;;2.33;;
4290;SDS011;2159;50.906;7.152;2023-02-03T06:10:35;4.90;;;2.43;;
4290;SDS011;2159;50.906;7.152;2023-02-03T06:13:13;5.43;;;2.17;;
4290;SDS011;2159;50.906;7.152;2023-02-03T06:15:41;4.20;;;2.23;;
4290;SDS011;2159;50.906;7.152;2023-02-03T06:18:08;4.50;;;2.43;;
4290;SDS011;2159;50.906;7.152;2023-02-03T06:20:36;8.37;;;2.43;;
4290;SDS011;2159;50.906;7.152;2023-02-03T06:23:04;2.40;;;1.83;;
4290;SDS011;2159;50.906;7.152;2023-02-03T06:25:31;3.83;;;2.03;;
4290;SDS011;2159;50.906;7.152;2023-02-03T06:28:00;4.33;;;1.73;;
4290;SDS011;2159;50.906;7.152;2023-02-03T06:30:27;3.80;;;2.20;;
4290;SDS011;2159;50.906;7.152;2023-02-03T06:32:55;5.80;;;2.40;;
4290;SDS011;2159;50.906;7.152;2023-02-03T06:35:22;2.30;;;1.70;;
4290;SDS011;2159;50.906;7.152;2023-02-03T06:37:50;3.43;;;1.70;;
4290;SDS011;2159;50.906;7.152;2023-02-03T06:40:17;2.87;;;1.90;;
4290;SDS011;2159;50.906;7.152;2023-02-03T06:42:45;8.17;;;2.10;;
4290;SDS011;2159;50.906;7.152;2023-02-03T06:45:14;4.13;;;1.87;;
4290;SDS011;2159;50.906;7.152;2023-02-03T06:47:42;8.73;;;1.93;;
4290;SDS011;2159;50.906;7.152;2023-02-03T06:50:11;4.73;;;1.80;;
4290;SDS011;2159;50.906;7.152;2023-02-03T06:52:39;4.10;;;1.77;;
4290;SDS011;2159;50.906;7.152;2023-02-03T06:55:07;2.70;;;2.47;;
4290;SDS011;2159;50.906;7.152;2023-02-03T06:57:34;8.43;;;2.07;;
4290;SDS011;2159;50.906;7.152;2023-02-03T07:00:02;4.90;;;1.77;;
4290;SDS011;2159;50.906;7.152;2023-02-03T07:02:31;5.60;;;2.23;;
4290;SDS011;2159;50.906;7.152;2023-02-03T07:04:58;6.17;;;1.87;;
4290;SDS011;2159;50.906;7.152;2023-02-03T07:07:26;4.63;;;2.03;;
4290;SDS011;2159;50.906;7.152;2023-02-03T07:09:53;3.77;;;1.70;;
4290;SDS011;2159;50.906;7.152;2023-02-03T07:12:21;3.30;;;1.80;;
4290;SDS011;2159;50.906;7.152;2023-02-03T07:14:48;3.13;;;1.87;;
4290;SDS011;2159;50.906;7.152;2023-02-03T07:17:16;8.13;;;2.47;;
4290;SDS011;2159;50.906;7.152;2023-02-03T07:19:45;6.60;;;2.20;;
4290;SDS011;2159;50.906;7.152;2023-02-03T07:22:12;4.10;;;1.90;;
4290;SDS011;2159;50.906;7.152;2023-02-03T07:24:39;2.90;;;2.00;;
4290;SDS011;2159;50.906;7.152;2023-02-03T07:27:07;3.57;;;1.50;;
4290;SDS011;2159;50.906;7.152;2023-02-03T07:29:34;5.00;;;1.60;;
4290;SDS011;2159;50.906;7.152;2023-02-03T07:32:02;5.60;;;2.10;;
4290;SDS011;2159;50.906;7.152;2023-02-03T07:34:29;1.77;;;1.60;;
4290;SDS011;2159;50.906;7.152;2023-02-03T07:36:58;5.37;;;1.80;;
4290;SDS011;2159;50.906;7.152;2023-02-03T07:39:26;2.30;;;1.70;;
4290;SDS011;2159;50.906;7.152;2023-02-03T07:41:53;1.63;;;1.50;;
4290;SDS011;2159;50.906;7.152;2023-02-03T07:44:21;1.90;;;1.70;;
4290;SDS011;2159;50.906;7.152;2023-02-03T07:46:48;6.20;;;1.80;;
4290;SDS011;2159;50.906;7.152;2023-02-03T07:49:16;2.83;;;1.40;;
4290;SDS011;2159;50.906;7.152;2023-02-03T07:51:43;3.10;;;1.77;;
4290;SDS011;2159;50.906;7.152;2023-02-03T07:54:12;2.00;;;1.53;;
4290;SDS011;2159;50.906;7.152;2023-02-03T07:56:40;2.43;;;1.60;;
4290;SDS011;2159;50.906;7.152;2023-02-03T07:59:08;2.70;;;1.67;;
4290;SDS011;2159;50.906;7.152;2023-02-03T08:01:35;2.50;;;1.73;;
4290;SDS011;2159;50.906;7.152;2023-02-03T08:04:03;3.80;;;1.83;;
4290;SDS011;2159;50.906;7.152;2023-02-03T08:06:31;1.83;;;1.50;;
4290;SDS011;2159;50.906;7.152;2023-02-03T08:08:59;4.93;;;1.80;;
4290;SDS011;2159;50.906;7.152;2023-02-03T08:11:28;2.10;;;1.50;;
4290;SDS011;2159;50.906;7.152;2023-02-03T08:13:55;3.70;;;1.67;;
4290;SDS011;2159;50.906;7.152;2023-02-03T08:16:23;2.27;;;1.60;;
4290;SDS011;2159;50.906;7.152;2023-02-03T08:18:50;6.77;;;1.77;;
4290;SDS011;2159;50.906;7.152;2023-02-03T08:21:18;4.23;;;1.60;;
4290;SDS011;2159;50.906;7.152;2023-02-03T08:23:45;4.63;;;1.70;;
4290;SDS011;2159;50.906;7.152;2023-02-03T08:26:13;3.80;;;1.83;;
4290;SDS011;2159;50.906;7.152;2023-02-03T08:28:41;3.33;;;1.67;;
4290;SDS011;2159;50.906;7.152;2023-02-03T08:31:09;3.57;;;1.67;;
4290;SDS011;2159;50.906;7.152;2023-02-03T08:33:37;2.70;;;1.20;;
4290;SDS011;2159;50.906;7.152;2023-02-03T08:36:05;7.20;;;1.50;;
4290;SDS011;2159;50.906;7.152;2023-02-03T08:38:32;3.50;;;1.60;;
4290;SDS011;2159;50.906;7.152;2023-02-03T08:41:00;7.20;;;2.20;;
4290;SDS011;2159;50.906;7.152;2023-02-03T08:43:28;3.60;;;1.43;;
4290;SDS011;2159;50.906;7.152;2023-02-03T08:45:56;3.80;;;1.60;;
4290;SDS011;2159;50.906;7.152;2023-02-03T08:48:28;2.77;;;1.50;;
4290;SDS011;2159;50.906;7.152;2023-02-03T08:50:55;2.93;;;1.80;;
4290;SDS011;2159;50.906;7.152;2023-02-03T08:53:23;4.13;;;1.80;;
4290;SDS011;2159;50.906;7.152;2023-02-03T08:55:50;3.17;;;1.60;;
4290;SDS011;2159;50.906;7.152;2023-02-03T08:58:18;5.50;;;2.20;;
4290;SDS011;2159;50.906;7.152;2023-02-03T09:00:45;6.50;;;1.90;;
4290;SDS011;2159;50.906;7.152;2023-02-03T09:03:16;5.40;;;1.67;;
4290;SDS011;2159;50.906;7.152;2023-02-03T09:05:43;2.83;;;1.80;;
4290;SDS011;2159;50.906;7.152;2023-02-03T09:08:11;4.97;;;1.60;;
4290;SDS011;2159;50.906;7.152;2023-02-03T09:10:38;1.70;;;1.50;;
4290;SDS011;2159;50.906;7.152;2023-02-03T09:13:06;3.10;;;1.77;;
4290;SDS011;2159;50.906;7.152;2023-02-03T09:15:33;2.63;;;1.70;;
4290;SDS011;2159;50.906;7.152;2023-02-03T09:18:01;5.13;;;1.97;;
4290;SDS011;2159;50.906;7.152;2023-02-03T09:20:29;3.90;;;1.97;;
4290;SDS011;2159;50.906;7.152;2023-02-03T09:22:57;2.10;;;1.70;;
4290;SDS011;2159;50.906;7.152;2023-02-03T09:25:25;2.53;;;1.80;;
4290;SDS011;2159;50.906;7.152;2023-02-03T09:27:53;4.40;;;1.80;;
4290;SDS011;2159;50.906;7.152;2023-02-03T09:30:20;4.23;;;1.80;;
4290;SDS011;2159;50.906;7.152;2023-02-03T09:32:51;2.90;;;1.83;;
4290;SDS011;2159;50.906;7.152;2023-02-03T09:35:19;4.93;;;2.33;;
4290;SDS011;2159;50.906;7.152;2023-02-03T09:37:48;3.13;;;2.10;;
4290;SDS011;2159;50.906;7.152;2023-02-03T09:40:17;4.40;;;1.90;;
4290;SDS011;2159;50.906;7.152;2023-02-03T09:42:53;3.50;;;1.90;;
4290;SDS011;2159;50.906;7.152;2023-02-03T09:45:23;4.60;;;2.47;;
4290;SDS011;2159;50.906;7.152;2023-02-03T09:47:51;6.73;;;2.67;;
4290;SDS011;2159;50.906;7.152;2023-02-03T09:50:21;6.93;;;2.30;;
4290;SDS011;2159;50.906;7.152;2023-02-03T09:52:51;9.30;;;2.13;;
4290;SDS011;2159;50.906;7.152;2023-02-03T09:55:23;3.60;;;2.10;;
4290;SDS011;2159;50.906;7.152;2023-02-03T09:57:52;3.97;;;2.30;;
4290;SDS011;2159;50.906;7.152;2023-02-03T10:00:22;7.57;;;2.50;;
4290;SDS011;2159;50.906;7.152;2023-02-03T10:02:54;3.03;;;2.13;;
4290;SDS011;2159;50.906;7.152;2023-02-03T10:05:24;6.00;;;2.80;;
4290;SDS011;2159;50.906;7.152;2023-02-03T10:07:57;2.30;;;1.90;;
4290;SDS011;2159;50.906;7.152;2023-02-03T10:10:32;3.60;;;2.20;;
4290;SDS011;2159;50.906;7.152;2023-02-03T10:13:04;2.63;;;2.00;;
4290;SDS011;2159;50.906;7.152;2023-02-03T10:15:42;5.03;;;2.10;;
4290;SDS011;2159;50.906;7.152;2023-02-03T10:18:11;7.73;;;2.43;;
4290;SDS011;2159;50.906;7.152;2023-02-03T10:20:41;6.20;;;2.60;;
4290;SDS011;2159;50.906;7.152;2023-02-03T10:23:11;3.50;;;2.20;;
4290;SDS011;2159;50.906;7.152;2023-02-03T10:25:41;5.53;;;2.37;;
4290;SDS011;2159;50.906;7.152;2023-02-03T10:28:19;3.87;;;1.87;;
4290;SDS011;2159;50.906;7.152;2023-02-03T10:30:47;3.60;;;2.47;;
4290;SDS011;2159;50.906;7.152;2023-02-03T10:33:16;6.37;;;2.60;;
4290;SDS011;2159;50.906;7.152;2023-02-03T10:35:46;3.90;;;2.60;;
4290;SDS011;2159;50.906;7.152;2023-02-03T10:38:20;5.43;;;2.67;;
4290;SDS011;2159;50.906;7.152;2023-02-03T10:40:48;6.67;;;2.67;;
4290;SDS011;2159;50.906;7.152;2023-02-03T10:43:16;3.37;;;2.70;;
4290;SDS011;2159;50.906;7.152;2023-02-03T10:46:01;4.17;;;2.60;;
4290;SDS011;2159;50.906;7.152;2023-02-03T10:48:29;4.97;;;2.20;;
4290;SDS011;2159;50.906;7.152;2023-02-03T10:50:57;5.40;;;2.50;;
4290;SDS011;2159;50.906;7.152;2023-02-03T10:53:30;4.67;;;2.47;;
4290;SDS011;2159;50.906;7.152;2023-02-03T10:55:59;3.57;;;2.80;;
4290;SDS011;2159;50.906;7.152;2023-02-03T10:58:28;7.33;;;2.80;;
4290;SDS011;2159;50.906;7.152;2023-02-03T11:00:57;3.77;;;2.77;;
4290;SDS011;2159;50.906;7.152;2023-02-03T11:03:30;10.10;;;3.07;;
4290;SDS011;2159;50.906;7.152;2023-02-03T11:06:02;6.53;;;3.10;;
4290;SDS011;2159;50.906;7.152;2023-02-03T11:08:31;3.33;;;2.60;;
4290;SDS011;2159;50.906;7.152;2023-02-03T11:11:03;3.43;;;3.13;;
4290;SDS011;2159;50.906;7.152;2023-02-03T11:13:30;5.37;;;2.90;;
4290;SDS011;2159;50.906;7.152;2023-02-03T11:15:59;4.83;;;3.00;;
4290;SDS011;2159;50.906;7.152;2023-02-03T11:21:13;7.10;;;3.30;;
4290;SDS011;2159;50.906;7.152;2023-02-03T11:23:47;3.43;;;3.10;;
4290;SDS011;2159;50.906;7.152;2023-02-03T11:26:17;5.03;;;2.90;;
4290;SDS011;2159;50.906;7.152;2023-02-03T11:28:45;3.63;;;3.10;;
4290;SDS011;2159;50.906;7.152;2023-02-03T11:31:14;3.60;;;3.30;;
4290;SDS011;2159;50.906;7.152;2023-02-03T11:33:45;5.23;;;3.60;;
4290;SDS011;2159;50.906;7.152;2023-02-03T11:36:13;6.13;;;3.00;;
4290;SDS011;2159;50.906;7.152;2023-02-03T11:38:40;8.40;;;3.83;;
4290;SDS011;2159;50.906;7.152;2023-02-03T11:41:16;4.10;;;3.63;;
4290;SDS011;2159;50.906;7.152;2023-02-03T11:43:43;8.73;;;3.40;;
4290;SDS011;2159;50.906;7.152;2023-02-03T11:46:11;5.10;;;3.70;;
4290;SDS011;2159;50.906;7.152;2023-02-03T11:48:42;6.67;;;3.97;;
4290;SDS011;2159;50.906;7.152;2023-02-03T11:51:16;5.73;;;3.93;;
4290;SDS011;2159;50.906;7.152;2023-02-03T11:53:52;4.57;;;4.17;;
4290;SDS011;2159;50.906;7.152;2023-02-03T11:56:30;8.90;;;4.50;;
4290;SDS011;2159;50.906;7.152;2023-02-03T11:59:02;7.47;;;4.50;;
4290;SDS011;2159;50.906;7.152;2023-02-03T12:04:24;8.50;;;4.70;;
4290;SDS011;2159;50.906;7.152;2023-02-03T12:06:58;7.87;;;4.87;;
4290;SDS011;2159;50.906;7.152;2023-02-03T12:09:32;7.93;;;4.90;;
4290;SDS011;2159;50.906;7.152;2023-02-03T12:12:07;12.47;;;5.37;;
4290;SDS011;2159;50.906;7.152;2023-02-03T12:14:44;6.73;;;4.80;;
4290;SDS011;2159;50.906;7.152;2023-02-03T12:17:17;6.90;;;4.80;;
4290;SDS011;2159;50.906;7.152;2023-02-03T12:19:53;8.80;;;5.10;;
4290;SDS011;2159;50.906;7.152;2023-02-03T12:22:25;7.93;;;5.73;;
4290;SDS011;2159;50.906;7.152;2023-02-03T12:24:58;10.53;;;6.07;;
4290;SDS011;2159;50.906;7.152;2023-02-03T12:27:32;9.40;;;5.87;;
4290;SDS011;2159;50.906;7.152;2023-02-03T12:30:02;8.77;;;6.33;;
4290;SDS011;2159;50.906;7.152;2023-02-03T12:32:33;9.87;;;6.57;;
4290;SDS011;2159;50.906;7.152;2023-02-03T12:35:04;7.33;;;5.70;;
4290;SDS011;2159;50.906;7.152;2023-02-03T12:37:41;11.17;;;7.03;;
4290;SDS011;2159;50.906;7.152;2023-02-03T12:40:12;10.13;;;6.33;;
4290;SDS011;2159;50.906;7.152;2023-02-03T12:42:43;10.50;;;7.10;;
4290;SDS011;2159;50.906;7.152;2023-02-03T12:45:13;9.23;;;6.70;;
4290;SDS011;2159;50.906;7.152;2023-02-03T12:47:44;11.20;;;6.10;;
4290;SDS011;2159;50.906;7.152;2023-02-03T12:50:16;10.50;;;7.00;;
4290;SDS011;2159;50.906;7.152;2023-02-03T12:52:48;12.30;;;7.10;;
4290;SDS011;2159;50.906;7.152;2023-02-03T12:55:19;12.43;;;7.20;;
4290;SDS011;2159;50.906;7.152;2023-02-03T12:57:50;11.53;;;7.23;;
4290;SDS011;2159;50.906;7.152;2023-02-03T13:00:23;8.70;;;7.17;;
4290;SDS011;2159;50.906;7.152;2023-02-03T13:02:58;11.60;;;7.27;;
4290;SDS011;2159;50.906;7.152;2023-02-03T13:05:29;10.93;;;7.47;;
4290;SDS011;2159;50.906;7.152;2023-02-03T13:08:00;13.77;;;7.30;;
4290;SDS011;2159;50.906;7.152;2023-02-03T13:10:36;13.97;;;7.70;;
4290;SDS011;2159;50.906;7.152;2023-02-03T13:13:08;12.83;;;7.17;;
4290;SDS011;2159;50.906;7.152;2023-02-03T13:15:42;11.97;;;7.20;;
4290;SDS011;2159;50.906;7.152;2023-02-03T13:18:12;13.03;;;7.90;;
4290;SDS011;2159;50.906;7.152;2023-02-03T13:20:41;12.27;;;8.27;;
4290;SDS011;2159;50.906;7.152;2023-02-03T13:23:09;7.27;;;6.37;;
4290;SDS011;2159;50.906;7.152;2023-02-03T13:25:41;14.87;;;7.73;;
4290;SDS011;2159;50.906;7.152;2023-02-03T13:28:16;11.17;;;7.50;;
4290;SDS011;2159;50.906;7.152;2023-02-03T13:30:51;12.73;;;8.93;;
4290;SDS011;2159;50.906;7.152;2023-02-03T13:36:11;11.20;;;8.80;;
4290;SDS011;2159;50.906;7.152;2023-02-03T13:38:53;13.50;;;8.43;;
4290;SDS011;2159;50.906;7.152;2023-02-03T13:41:27;14.00;;;9.20;;
4290;SDS011;2159;50.906;7.152;2023-02-03T13:43:57;13.30;;;9.00;;
4290;SDS011;2159;50.906;7.152;2023-02-03T13:46:25;13.67;;;8.70;;
4290;SDS011;2159;50.906;7.152;2023-02-03T13:48:54;13.20;;;9.20;;
4290;SDS011;2159;50.906;7.152;2023-02-03T13:51:24;17.30;;;9.83;;
4290;SDS011;2159;50.906;7.152;2023-02-03T13:53:57;15.30;;;9.60;;
4290;SDS011;2159;50.906;7.152;2023-02-03T13:56:25;15.63;;;9.90;;
4290;SDS011;2159;50.906;7.152;2023-02-03T13:58:59;15.00;;;9.53;;
4290;SDS011;2159;50.906;7.152;2023-02-03T14:01:34;13.20;;;9.77;;
4290;SDS011;2159;50.906;7.152;2023-02-03T14:04:02;15.90;;;9.73;;
4290;SDS011;2159;50.906;7.152;2023-02-03T14:09:33;16.50;;;10.63;;
4290;SDS011;2159;50.906;7.152;2023-02-03T14:12:18;19.33;;;12.90;;
4290;SDS011;2159;50.906;7.152;2023-02-03T14:14:57;17.80;;;10.87;;
4290;SDS011;2159;50.906;7.152;2023-02-03T14:20:33;18.17;;;10.90;;
4290;SDS011;2159;50.906;7.152;2023-02-03T14:23:05;20.23;;;11.90;;
4290;SDS011;2159;50.906;7.152;2023-02-03T14:25:37;15.83;;;10.50;;
4290;SDS011;2159;50.906;7.152;2023-02-03T14:28:06;20.70;;;10.40;;
4290;SDS011;2159;50.906;7.152;2023-02-03T14:33:19;14.67;;;9.63;;
4290;SDS011;2159;50.906;7.152;2023-02-03T14:35:50;13.70;;;10.00;;
4290;SDS011;2159;50.906;7.152;2023-02-03T14:38:18;21.07;;;10.07;;
4290;SDS011;2159;50.906;7.152;2023-02-03T14:40:46;20.03;;;10.80;;
4290;SDS011;2159;50.906;7.152;2023-02-03T14:43:23;13.60;;;10.17;;
4290;SDS011;2159;50.906;7.152;2023-02-03T14:45:59;15.73;;;9.57;;
4290;SDS011;2159;50.906;7.152;2023-02-03T14:48:38;16.30;;;9.30;;
4290;SDS011;2159;50.906;7.152;2023-02-03T14:51:10;12.87;;;8.47;;
4290;SDS011;2159;50.906;7.152;2023-02-03T14:53:54;15.03;;;9.70;;
4290;SDS011;2159;50.906;7.152;2023-02-03T14:56:30;13.93;;;9.30;;
4290;SDS011;2159;50.906;7.152;2023-02-03T14:59:20;12.18;;;9.18;;
4290;SDS011;2159;50.906;7.152;2023-02-03T15:02:13;12.80;;;8.90;;
4290;SDS011;2159;50.906;7.152;2023-02-03T15:04:42;16.50;;;8.57;;
4290;SDS011;2159;50.906;7.152;2023-02-03T15:10:11;13.83;;;7.30;;
4290;SDS011;2159;50.906;7.152;2023-02-03T15:12:42;13.67;;;7.17;;
4290;SDS011;2159;50.906;7.152;2023-02-03T15:15:11;13.83;;;7.27;;
4290;SDS011;2159;50.906;7.152;2023-02-03T15:17:38;10.20;;;7.03;;
4290;SDS011;2159;50.906;7.152;2023-02-03T15:20:16;10.10;;;7.40;;
4290;SDS011;2159;50.906;7.152;2023-02-03T15:22:50;15.37;;;7.80;;
4290;SDS011;2159;50.906;7.152;2023-02-03T15:25:18;13.30;;;9.33;;
4290;SDS011;2159;50.906;7.152;2023-02-03T15:27:47;18.97;;;11.10;;
4290;SDS011;2159;50.906;7.152;2023-02-03T15:30:15;21.83;;;14.07;;
4290;SDS011;2159;50.906;7.152;2023-02-03T15:32:45;24.20;;;13.87;;
4290;SDS011;2159;50.906;7.152;2023-02-03T15:35:16;22.13;;;12.00;;
4290;SDS011;2159;50.906;7.152;2023-02-03T15:37:46;25.43;;;12.10;;
4290;SDS011;2159;50.906;7.152;2023-02-03T15:40:15;19.10;;;10.40;;
4290;SDS011;2159;50.906;7.152;2023-02-03T15:42:46;18.70;;;10.10;;
4290;SDS011;2159;50.906;7.152;2023-02-03T15:45:19;19.00;;;8.83;;
4290;SDS011;2159;50.906;7.152;2023-02-03T15:47:49;18.30;;;8.50;;
4290;SDS011;2159;50.906;7.152;2023-02-03T15:50:25;13.13;;;8.63;;
4290;SDS011;2159;50.906;7.152;2023-02-03T15:52:56;11.70;;;7.67;;
4290;SDS011;2159;50.906;7.152;2023-02-03T15:55:28;12.83;;;7.57;;